sensor_id;sensor_type;location;lat;lon;timestamp;P1;durP1;ratioP1;P2;durP2;ratioP2
52208;SDS011;38507;53.132;6.394;2022-07-26T00:01:43;22.60;;;3.60;;
52208;SDS011;38507;53.132;6.394;2022-07-26T00:04:09;16.70;;;3.75;;
52208;SDS011;38507;53.132;6.394;2022-07-26T00:06:36;13.38;;;2.95;;
52208;SDS011;38507;53.132;6.394;2022-07-26T00:09:02;22.13;;;3.28;;
52208;SDS011;38507;53.132;6.394;2022-07-26T00:11:28;13.00;;;2.72;;
52208;SDS011;38507;53.132;6.394;2022-07-26T00:13:57;18.27;;;2.88;;
52208;SDS011;38507;53.132;6.394;2022-07-26T00:16:25;17.63;;;2.72;;
52208;SDS011;38507;53.132;6.394;2022-07-26T00:18:50;23.40;;;3.72;;
52208;SDS011;38507;53.132;6.394;2022-07-26T00:21:17;19.75;;;3.45;;
52208;SDS011;38507;53.132;6.394;2022-07-26T00:23:43;18.75;;;3.63;;
52208;SDS011;38507;53.132;6.394;2022-07-26T00:26:09;21.20;;;3.45;;
52208;SDS011;38507;53.132;6.394;2022-07-26T00:28:34;19.95;;;3.55;;
52208;SDS011;38507;53.132;6.394;2022-07-26T00:31:00;16.13;;;2.90;;
52208;SDS011;38507;53.132;6.394;2022-07-26T00:33:26;19.00;;;3.40;;
52208;SDS011;38507;53.132;6.394;2022-07-26T00:35:52;16.10;;;2.85;;
52208;SDS011;38507;53.132;6.394;2022-07-26T00:38:17;18.80;;;3.90;;
52208;SDS011;38507;53.132;6.394;2022-07-26T00:40:43;17.88;;;3.40;;
52208;SDS011;38507;53.132;6.394;2022-07-26T00:43:09;13.02;;;3.33;;
52208;SDS011;38507;53.132;6.394;2022-07-26T00:45:34;22.13;;;3.30;;
52208;SDS011;38507;53.132;6.394;2022-07-26T00:48:00;17.35;;;3.65;;
52208;SDS011;38507;53.132;6.394;2022-07-26T00:50:26;21.73;;;3.58;;
52208;SDS011;38507;53.132;6.394;2022-07-26T00:52:52;24.05;;;3.85;;
52208;SDS011;38507;53.132;6.394;2022-07-26T00:55:18;24.67;;;3.72;;
52208;SDS011;38507;53.132;6.394;2022-07-26T00:57:45;20.80;;;3.55;;
52208;SDS011;38507;53.132;6.394;2022-07-26T01:00:12;15.93;;;3.33;;
52208;SDS011;38507;53.132;6.394;2022-07-26T01:02:40;15.57;;;3.25;;
52208;SDS011;38507;53.132;6.394;2022-07-26T01:05:07;10.50;;;2.63;;
52208;SDS011;38507;53.132;6.394;2022-07-26T01:07:33;15.48;;;3.08;;
52208;SDS011;38507;53.132;6.394;2022-07-26T01:10:00;12.75;;;2.75;;
52208;SDS011;38507;53.132;6.394;2022-07-26T01:12:28;16.65;;;3.15;;
52208;SDS011;38507;53.132;6.394;2022-07-26T01:14:53;9.70;;;2.88;;
52208;SDS011;38507;53.132;6.394;2022-07-26T01:17:19;13.32;;;3.13;;
52208;SDS011;38507;53.132;6.394;2022-07-26T01:19:44;16.52;;;2.85;;
52208;SDS011;38507;53.132;6.394;2022-07-26T01:22:10;9.52;;;2.63;;
52208;SDS011;38507;53.132;6.394;2022-07-26T01:24:36;13.90;;;2.75;;
52208;SDS011;38507;53.132;6.394;2022-07-26T01:27:02;11.70;;;2.72;;
52208;SDS011;38507;53.132;6.394;2022-07-26T01:29:27;13.80;;;3.53;;
52208;SDS011;38507;53.132;6.394;2022-07-26T01:31:53;10.20;;;2.65;;
52208;SDS011;38507;53.132;6.394;2022-07-26T01:34:19;9.93;;;2.90;;
52208;SDS011;38507;53.132;6.394;2022-07-26T01:36:45;10.38;;;2.83;;
52208;SDS011;38507;53.132;6.394;2022-07-26T01:39:11;14.13;;;2.78;;
52208;SDS011;38507;53.132;6.394;2022-07-26T01:41:36;10.20;;;2.97;;
52208;SDS011;38507;53.132;6.394;2022-07-26T01:44:02;7.13;;;2.30;;
52208;SDS011;38507;53.132;6.394;2022-07-26T01:46:28;9.75;;;2.15;;
52208;SDS011;38507;53.132;6.394;2022-07-26T01:48:54;7.70;;;2.35;;
52208;SDS011;38507;53.132;6.394;2022-07-26T01:51:20;14.45;;;2.47;;
52208;SDS011;38507;53.132;6.394;2022-07-26T01:53:45;6.20;;;2.25;;
52208;SDS011;38507;53.132;6.394;2022-07-26T01:56:14;10.48;;;2.35;;
52208;SDS011;38507;53.132;6.394;2022-07-26T01:58:40;9.40;;;2.35;;
52208;SDS011;38507;53.132;6.394;2022-07-26T02:01:06;6.85;;;2.63;;
52208;SDS011;38507;53.132;6.394;2022-07-26T02:03:32;7.10;;;2.28;;
52208;SDS011;38507;53.132;6.394;2022-07-26T02:05:58;10.30;;;2.88;;
52208;SDS011;38507;53.132;6.394;2022-07-26T02:08:24;9.43;;;2.22;;
52208;SDS011;38507;53.132;6.394;2022-07-26T02:10:50;7.43;;;2.67;;
52208;SDS011;38507;53.132;6.394;2022-07-26T02:13:26;15.60;;;2.58;;
52208;SDS011;38507;53.132;6.394;2022-07-26T02:15:56;4.93;;;2.30;;
52208;SDS011;38507;53.132;6.394;2022-07-26T02:18:26;10.85;;;2.95;;
52208;SDS011;38507;53.132;6.394;2022-07-26T02:20:53;10.07;;;2.42;;
52208;SDS011;38507;53.132;6.394;2022-07-26T02:23:19;5.07;;;2.17;;
52208;SDS011;38507;53.132;6.394;2022-07-26T02:25:45;9.68;;;2.70;;
52208;SDS011;38507;53.132;6.394;2022-07-26T02:28:12;13.68;;;2.78;;
52208;SDS011;38507;53.132;6.394;2022-07-26T02:30:39;32.60;;;3.70;;
52208;SDS011;38507;53.132;6.394;2022-07-26T02:33:05;12.77;;;1.83;;
52208;SDS011;38507;53.132;6.394;2022-07-26T02:35:30;7.50;;;1.60;;
52208;SDS011;38507;53.132;6.394;2022-07-26T02:38:00;14.75;;;1.88;;
52208;SDS011;38507;53.132;6.394;2022-07-26T02:40:26;6.60;;;1.48;;
52208;SDS011;38507;53.132;6.394;2022-07-26T02:42:52;6.68;;;1.58;;
52208;SDS011;38507;53.132;6.394;2022-07-26T02:45:21;5.53;;;1.23;;
52208;SDS011;38507;53.132;6.394;2022-07-26T02:47:48;7.25;;;1.50;;
52208;SDS011;38507;53.132;6.394;2022-07-26T02:50:15;9.15;;;1.83;;
52208;SDS011;38507;53.132;6.394;2022-07-26T02:52:42;8.25;;;1.90;;
52208;SDS011;38507;53.132;6.394;2022-07-26T02:55:08;5.85;;;1.50;;
52208;SDS011;38507;53.132;6.394;2022-07-26T02:57:34;7.68;;;2.13;;
52208;SDS011;38507;53.132;6.394;2022-07-26T02:59:59;6.95;;;1.70;;
52208;SDS011;38507;53.132;6.394;2022-07-26T03:02:25;10.20;;;1.73;;
52208;SDS011;38507;53.132;6.394;2022-07-26T03:04:51;15.45;;;2.20;;
52208;SDS011;38507;53.132;6.394;2022-07-26T03:07:17;7.47;;;1.75;;
52208;SDS011;38507;53.132;6.394;2022-07-26T03:09:42;10.52;;;2.28;;
52208;SDS011;38507;53.132;6.394;2022-07-26T03:12:08;12.93;;;2.10;;
52208;SDS011;38507;53.132;6.394;2022-07-26T03:14:34;14.07;;;2.15;;
52208;SDS011;38507;53.132;6.394;2022-07-26T03:16:59;16.75;;;2.88;;
52208;SDS011;38507;53.132;6.394;2022-07-26T03:19:25;14.65;;;2.10;;
52208;SDS011;38507;53.132;6.394;2022-07-26T03:21:51;15.13;;;2.45;;
52208;SDS011;38507;53.132;6.394;2022-07-26T03:24:16;13.73;;;2.40;;
52208;SDS011;38507;53.132;6.394;2022-07-26T03:26:42;13.75;;;2.60;;
52208;SDS011;38507;53.132;6.394;2022-07-26T03:29:08;10.30;;;1.90;;
52208;SDS011;38507;53.132;6.394;2022-07-26T03:31:33;12.05;;;3.40;;
52208;SDS011;38507;53.132;6.394;2022-07-26T03:33:59;11.80;;;2.60;;
52208;SDS011;38507;53.132;6.394;2022-07-26T03:36:25;8.88;;;1.40;;
52208;SDS011;38507;53.132;6.394;2022-07-26T03:38:50;11.82;;;1.83;;
52208;SDS011;38507;53.132;6.394;2022-07-26T03:41:16;14.45;;;2.00;;
52208;SDS011;38507;53.132;6.394;2022-07-26T03:43:42;8.13;;;1.42;;
52208;SDS011;38507;53.132;6.394;2022-07-26T03:46:07;11.85;;;1.50;;
52208;SDS011;38507;53.132;6.394;2022-07-26T03:48:33;11.60;;;1.90;;
52208;SDS011;38507;53.132;6.394;2022-07-26T03:50:58;20.50;;;1.50;;
52208;SDS011;38507;53.132;6.394;2022-07-26T03:53:24;16.95;;;2.42;;
52208;SDS011;38507;53.132;6.394;2022-07-26T03:55:50;17.27;;;2.33;;
52208;SDS011;38507;53.132;6.394;2022-07-26T03:58:34;10.45;;;1.70;;
52208;SDS011;38507;53.132;6.394;2022-07-26T04:01:00;11.02;;;1.10;;
52208;SDS011;38507;53.132;6.394;2022-07-26T04:03:26;12.55;;;1.13;;
52208;SDS011;38507;53.132;6.394;2022-07-26T04:05:52;3.83;;;0.73;;
52208;SDS011;38507;53.132;6.394;2022-07-26T04:08:18;13.60;;;1.25;;
52208;SDS011;38507;53.132;6.394;2022-07-26T04:10:44;9.10;;;1.40;;
52208;SDS011;38507;53.132;6.394;2022-07-26T04:13:15;16.73;;;1.13;;
52208;SDS011;38507;53.132;6.394;2022-07-26T04:15:41;8.90;;;1.10;;
52208;SDS011;38507;53.132;6.394;2022-07-26T04:18:07;8.10;;;1.00;;
52208;SDS011;38507;53.132;6.394;2022-07-26T04:20:33;8.40;;;1.17;;
52208;SDS011;38507;53.132;6.394;2022-07-26T04:22:59;7.53;;;0.98;;
52208;SDS011;38507;53.132;6.394;2022-07-26T04:25:24;5.18;;;1.13;;
52208;SDS011;38507;53.132;6.394;2022-07-26T04:27:50;10.65;;;1.65;;
52208;SDS011;38507;53.132;6.394;2022-07-26T04:30:16;2.88;;;0.70;;
52208;SDS011;38507;53.132;6.394;2022-07-26T04:32:42;6.93;;;0.93;;
52208;SDS011;38507;53.132;6.394;2022-07-26T04:35:09;7.63;;;0.88;;
52208;SDS011;38507;53.132;6.394;2022-07-26T04:37:38;8.00;;;0.90;;
52208;SDS011;38507;53.132;6.394;2022-07-26T04:40:05;10.48;;;0.90;;
52208;SDS011;38507;53.132;6.394;2022-07-26T04:42:31;5.32;;;0.70;;
52208;SDS011;38507;53.132;6.394;2022-07-26T04:44:57;7.13;;;0.73;;
52208;SDS011;38507;53.132;6.394;2022-07-26T04:47:22;3.50;;;0.73;;
52208;SDS011;38507;53.132;6.394;2022-07-26T04:49:48;9.57;;;1.13;;
52208;SDS011;38507;53.132;6.394;2022-07-26T04:52:14;9.63;;;0.88;;
52208;SDS011;38507;53.132;6.394;2022-07-26T04:54:39;5.10;;;0.70;;
52208;SDS011;38507;53.132;6.394;2022-07-26T04:57:05;7.43;;;1.05;;
52208;SDS011;38507;53.132;6.394;2022-07-26T04:59:30;4.55;;;0.88;;
52208;SDS011;38507;53.132;6.394;2022-07-26T05:01:56;9.10;;;0.85;;
52208;SDS011;38507;53.132;6.394;2022-07-26T05:04:22;10.05;;;1.05;;
52208;SDS011;38507;53.132;6.394;2022-07-26T05:06:47;7.10;;;0.90;;
52208;SDS011;38507;53.132;6.394;2022-07-26T05:09:13;6.88;;;0.98;;
52208;SDS011;38507;53.132;6.394;2022-07-26T05:11:39;4.35;;;0.80;;
52208;SDS011;38507;53.132;6.394;2022-07-26T05:14:04;8.27;;;0.70;;
52208;SDS011;38507;53.132;6.394;2022-07-26T05:16:30;9.82;;;1.02;;
52208;SDS011;38507;53.132;6.394;2022-07-26T05:18:55;6.22;;;1.10;;
52208;SDS011;38507;53.132;6.394;2022-07-26T05:21:21;11.70;;;0.98;;
52208;SDS011;38507;53.132;6.394;2022-07-26T05:23:47;6.10;;;1.23;;
52208;SDS011;38507;53.132;6.394;2022-07-26T05:26:12;6.88;;;0.73;;
52208;SDS011;38507;53.132;6.394;2022-07-26T05:28:39;6.50;;;0.90;;
52208;SDS011;38507;53.132;6.394;2022-07-26T05:31:04;7.75;;;1.00;;
52208;SDS011;38507;53.132;6.394;2022-07-26T05:33:30;4.85;;;0.65;;
52208;SDS011;38507;53.132;6.394;2022-07-26T05:35:56;5.10;;;0.68;;
52208;SDS011;38507;53.132;6.394;2022-07-26T05:38:21;2.95;;;0.60;;
52208;SDS011;38507;53.132;6.394;2022-07-26T05:40:49;4.28;;;0.70;;
52208;SDS011;38507;53.132;6.394;2022-07-26T05:43:15;8.27;;;1.20;;
52208;SDS011;38507;53.132;6.394;2022-07-26T05:45:47;4.30;;;1.05;;
52208;SDS011;38507;53.132;6.394;2022-07-26T05:48:16;3.58;;;0.50;;
52208;SDS011;38507;53.132;6.394;2022-07-26T05:50:42;5.53;;;0.70;;
52208;SDS011;38507;53.132;6.394;2022-07-26T05:53:08;9.35;;;1.20;;
52208;SDS011;38507;53.132;6.394;2022-07-26T05:55:34;6.00;;;0.80;;
52208;SDS011;38507;53.132;6.394;2022-07-26T05:57:59;7.38;;;0.70;;
52208;SDS011;38507;53.132;6.394;2022-07-26T06:00:25;5.13;;;0.65;;
52208;SDS011;38507;53.132;6.394;2022-07-26T06:02:51;8.48;;;1.00;;
52208;SDS011;38507;53.132;6.394;2022-07-26T06:05:16;6.07;;;0.70;;
52208;SDS011;38507;53.132;6.394;2022-07-26T06:07:42;6.22;;;1.40;;
52208;SDS011;38507;53.132;6.394;2022-07-26T06:10:08;5.18;;;0.70;;
52208;SDS011;38507;53.132;6.394;2022-07-26T06:12:34;9.60;;;1.00;;
52208;SDS011;38507;53.132;6.394;2022-07-26T06:14:59;8.98;;;2.20;;
52208;SDS011;38507;53.132;6.394;2022-07-26T06:17:25;5.93;;;0.60;;
52208;SDS011;38507;53.132;6.394;2022-07-26T06:19:54;5.72;;;0.98;;
52208;SDS011;38507;53.132;6.394;2022-07-26T06:22:20;8.20;;;0.90;;
52208;SDS011;38507;53.132;6.394;2022-07-26T06:24:46;7.90;;;0.80;;
52208;SDS011;38507;53.132;6.394;2022-07-26T06:27:12;3.85;;;0.60;;
52208;SDS011;38507;53.132;6.394;2022-07-26T06:29:38;5.68;;;0.98;;
52208;SDS011;38507;53.132;6.394;2022-07-26T06:32:04;3.47;;;1.08;;
52208;SDS011;38507;53.132;6.394;2022-07-26T06:34:30;7.07;;;0.77;;
52208;SDS011;38507;53.132;6.394;2022-07-26T06:36:56;9.82;;;0.82;;
52208;SDS011;38507;53.132;6.394;2022-07-26T06:39:21;9.98;;;0.90;;
52208;SDS011;38507;53.132;6.394;2022-07-26T06:41:47;5.32;;;0.60;;
52208;SDS011;38507;53.132;6.394;2022-07-26T06:44:12;7.88;;;1.23;;
52208;SDS011;38507;53.132;6.394;2022-07-26T06:46:38;7.30;;;0.82;;
52208;SDS011;38507;53.132;6.394;2022-07-26T06:49:04;7.45;;;0.80;;
52208;SDS011;38507;53.132;6.394;2022-07-26T06:51:30;6.93;;;0.90;;
52208;SDS011;38507;53.132;6.394;2022-07-26T06:53:56;6.38;;;0.90;;
52208;SDS011;38507;53.132;6.394;2022-07-26T06:56:21;5.15;;;0.65;;
52208;SDS011;38507;53.132;6.394;2022-07-26T06:58:47;7.13;;;1.05;;
52208;SDS011;38507;53.132;6.394;2022-07-26T07:01:13;11.73;;;1.23;;
52208;SDS011;38507;53.132;6.394;2022-07-26T07:03:38;5.25;;;0.82;;
52208;SDS011;38507;53.132;6.394;2022-07-26T07:06:04;15.13;;;0.80;;
52208;SDS011;38507;53.132;6.394;2022-07-26T07:08:30;7.97;;;1.17;;
52208;SDS011;38507;53.132;6.394;2022-07-26T07:10:56;9.00;;;0.80;;
52208;SDS011;38507;53.132;6.394;2022-07-26T07:13:21;11.45;;;0.90;;
52208;SDS011;38507;53.132;6.394;2022-07-26T07:15:47;6.47;;;0.80;;
52208;SDS011;38507;53.132;6.394;2022-07-26T07:18:13;9.98;;;1.00;;
52208;SDS011;38507;53.132;6.394;2022-07-26T07:20:39;6.55;;;0.98;;
52208;SDS011;38507;53.132;6.394;2022-07-26T07:23:05;9.02;;;0.65;;
52208;SDS011;38507;53.132;6.394;2022-07-26T07:25:32;6.50;;;0.68;;
52208;SDS011;38507;53.132;6.394;2022-07-26T07:27:58;7.30;;;0.85;;
52208;SDS011;38507;53.132;6.394;2022-07-26T07:30:36;4.75;;;0.77;;
52208;SDS011;38507;53.132;6.394;2022-07-26T07:33:02;6.88;;;0.93;;
52208;SDS011;38507;53.132;6.394;2022-07-26T07:35:28;6.40;;;0.82;;
52208;SDS011;38507;53.132;6.394;2022-07-26T07:37:54;6.78;;;0.68;;
52208;SDS011;38507;53.132;6.394;2022-07-26T07:40:20;5.75;;;0.77;;
52208;SDS011;38507;53.132;6.394;2022-07-26T07:42:46;7.50;;;1.52;;
52208;SDS011;38507;53.132;6.394;2022-07-26T07:45:15;5.78;;;1.17;;
52208;SDS011;38507;53.132;6.394;2022-07-26T07:47:41;8.98;;;0.90;;
52208;SDS011;38507;53.132;6.394;2022-07-26T07:50:07;5.60;;;0.77;;
52208;SDS011;38507;53.132;6.394;2022-07-26T07:52:39;6.70;;;0.98;;
52208;SDS011;38507;53.132;6.394;2022-07-26T07:55:04;6.15;;;1.25;;
52208;SDS011;38507;53.132;6.394;2022-07-26T07:57:31;7.63;;;1.20;;
52208;SDS011;38507;53.132;6.394;2022-07-26T07:59:59;5.68;;;1.50;;
52208;SDS011;38507;53.132;6.394;2022-07-26T08:02:25;5.53;;;1.58;;
52208;SDS011;38507;53.132;6.394;2022-07-26T08:04:51;12.68;;;1.20;;
52208;SDS011;38507;53.132;6.394;2022-07-26T08:07:18;7.72;;;1.00;;
52208;SDS011;38507;53.132;6.394;2022-07-26T08:09:44;5.13;;;0.90;;
52208;SDS011;38507;53.132;6.394;2022-07-26T08:12:10;8.63;;;1.00;;
52208;SDS011;38507;53.132;6.394;2022-07-26T08:14:35;7.45;;;1.17;;
52208;SDS011;38507;53.132;6.394;2022-07-26T08:17:01;9.27;;;1.20;;
52208;SDS011;38507;53.132;6.394;2022-07-26T08:19:26;6.43;;;0.90;;
52208;SDS011;38507;53.132;6.394;2022-07-26T08:21:52;6.85;;;1.02;;
52208;SDS011;38507;53.132;6.394;2022-07-26T08:24:18;9.10;;;1.20;;
52208;SDS011;38507;53.132;6.394;2022-07-26T08:26:43;10.35;;;1.17;;
52208;SDS011;38507;53.132;6.394;2022-07-26T08:29:12;10.48;;;1.25;;
52208;SDS011;38507;53.132;6.394;2022-07-26T08:31:38;12.75;;;1.55;;
52208;SDS011;38507;53.132;6.394;2022-07-26T08:34:05;6.82;;;1.35;;
52208;SDS011;38507;53.132;6.394;2022-07-26T08:36:31;11.30;;;1.38;;
52208;SDS011;38507;53.132;6.394;2022-07-26T08:38:56;9.48;;;1.25;;
52208;SDS011;38507;53.132;6.394;2022-07-26T08:41:29;11.18;;;1.63;;
52208;SDS011;38507;53.132;6.394;2022-07-26T08:44:03;12.93;;;1.50;;
52208;SDS011;38507;53.132;6.394;2022-07-26T08:46:34;9.32;;;1.20;;
52208;SDS011;38507;53.132;6.394;2022-07-26T08:51:59;7.20;;;1.25;;
52208;SDS011;38507;53.132;6.394;2022-07-26T08:54:25;7.43;;;1.20;;
52208;SDS011;38507;53.132;6.394;2022-07-26T08:56:52;6.78;;;0.90;;
52208;SDS011;38507;53.132;6.394;2022-07-26T08:59:18;7.97;;;1.30;;
52208;SDS011;38507;53.132;6.394;2022-07-26T09:02:00;11.27;;;1.70;;
52208;SDS011;38507;53.132;6.394;2022-07-26T09:04:47;10.90;;;2.72;;
52208;SDS011;38507;53.132;6.394;2022-07-26T09:07:18;14.00;;;2.03;;
52208;SDS011;38507;53.132;6.394;2022-07-26T09:15:36;12.88;;;1.90;;
52208;SDS011;38507;53.132;6.394;2022-07-26T09:18:02;9.38;;;1.52;;
52208;SDS011;38507;53.132;6.394;2022-07-26T09:20:28;14.13;;;1.88;;
52208;SDS011;38507;53.132;6.394;2022-07-26T09:23:08;12.00;;;1.75;;
52208;SDS011;38507;53.132;6.394;2022-07-26T09:25:44;8.85;;;1.70;;
52208;SDS011;38507;53.132;6.394;2022-07-26T09:31:05;17.45;;;2.30;;
52208;SDS011;38507;53.132;6.394;2022-07-26T09:33:49;20.13;;;2.72;;
52208;SDS011;38507;53.132;6.394;2022-07-26T09:36:15;17.00;;;2.33;;
52208;SDS011;38507;53.132;6.394;2022-07-26T09:38:43;14.60;;;2.15;;
52208;SDS011;38507;53.132;6.394;2022-07-26T09:41:27;10.77;;;2.13;;
52208;SDS011;38507;53.132;6.394;2022-07-26T09:43:58;13.70;;;2.08;;
52208;SDS011;38507;53.132;6.394;2022-07-26T09:46:29;18.10;;;2.60;;
52208;SDS011;38507;53.132;6.394;2022-07-26T09:48:56;14.13;;;2.05;;
52208;SDS011;38507;53.132;6.394;2022-07-26T09:51:42;16.10;;;1.95;;
52208;SDS011;38507;53.132;6.394;2022-07-26T09:54:10;13.20;;;1.58;;
52208;SDS011;38507;53.132;6.394;2022-07-26T09:56:45;9.43;;;1.80;;
52208;SDS011;38507;53.132;6.394;2022-07-26T09:59:13;9.50;;;1.20;;
52208;SDS011;38507;53.132;6.394;2022-07-26T10:01:40;14.15;;;2.38;;
52208;SDS011;38507;53.132;6.394;2022-07-26T10:04:06;12.18;;;1.60;;
52208;SDS011;38507;53.132;6.394;2022-07-26T10:06:32;11.65;;;1.90;;
52208;SDS011;38507;53.132;6.394;2022-07-26T10:08:59;14.63;;;1.50;;
52208;SDS011;38507;53.132;6.394;2022-07-26T10:11:25;10.15;;;1.90;;
52208;SDS011;38507;53.132;6.394;2022-07-26T10:13:56;19.42;;;2.17;;
52208;SDS011;38507;53.132;6.394;2022-07-26T10:16:29;8.48;;;1.50;;
52208;SDS011;38507;53.132;6.394;2022-07-26T10:18:56;13.02;;;1.52;;
52208;SDS011;38507;53.132;6.394;2022-07-26T10:23:58;14.70;;;1.58;;
52208;SDS011;38507;53.132;6.394;2022-07-26T10:31:42;10.85;;;1.58;;
52208;SDS011;38507;53.132;6.394;2022-07-26T10:36:57;12.63;;;1.90;;
52208;SDS011;38507;53.132;6.394;2022-07-26T10:39:24;8.73;;;1.27;;
52208;SDS011;38507;53.132;6.394;2022-07-26T10:41:56;13.35;;;2.03;;
52208;SDS011;38507;53.132;6.394;2022-07-26T10:44:33;11.57;;;1.45;;
52208;SDS011;38507;53.132;6.394;2022-07-26T10:49:35;9.63;;;1.30;;
52208;SDS011;38507;53.132;6.394;2022-07-26T10:57:23;15.25;;;1.50;;
52208;SDS011;38507;53.132;6.394;2022-07-26T10:59:54;8.48;;;1.10;;
52208;SDS011;38507;53.132;6.394;2022-07-26T11:02:22;13.70;;;1.60;;
52208;SDS011;38507;53.132;6.394;2022-07-26T11:07:59;8.48;;;1.75;;
52208;SDS011;38507;53.132;6.394;2022-07-26T11:10:43;6.18;;;1.10;;
52208;SDS011;38507;53.132;6.394;2022-07-26T11:13:12;7.38;;;1.20;;
52208;SDS011;38507;53.132;6.394;2022-07-26T11:15:39;8.07;;;1.10;;
52208;SDS011;38507;53.132;6.394;2022-07-26T11:20:33;7.30;;;1.30;;
52208;SDS011;38507;53.132;6.394;2022-07-26T11:22:59;9.60;;;1.20;;
52208;SDS011;38507;53.132;6.394;2022-07-26T11:25:25;7.63;;;1.05;;
52208;SDS011;38507;53.132;6.394;2022-07-26T11:27:57;7.15;;;0.90;;
52208;SDS011;38507;53.132;6.394;2022-07-26T11:30:24;9.60;;;0.95;;
52208;SDS011;38507;53.132;6.394;2022-07-26T11:32:51;4.80;;;0.95;;
52208;SDS011;38507;53.132;6.394;2022-07-26T11:35:18;4.82;;;0.77;;
52208;SDS011;38507;53.132;6.394;2022-07-26T11:37:53;5.45;;;0.98;;
52208;SDS011;38507;53.132;6.394;2022-07-26T11:43:15;6.70;;;1.10;;
52208;SDS011;38507;53.132;6.394;2022-07-26T11:45:40;8.85;;;1.15;;
52208;SDS011;38507;53.132;6.394;2022-07-26T11:48:06;12.02;;;1.42;;
52208;SDS011;38507;53.132;6.394;2022-07-26T11:50:32;6.78;;;1.10;;
52208;SDS011;38507;53.132;6.394;2022-07-26T11:52:57;12.10;;;1.30;;
52208;SDS011;38507;53.132;6.394;2022-07-26T11:55:26;5.38;;;1.15;;
52208;SDS011;38507;53.132;6.394;2022-07-26T11:57:53;4.72;;;0.88;;
52208;SDS011;38507;53.132;6.394;2022-07-26T12:00:20;12.40;;;1.05;;
52208;SDS011;38507;53.132;6.394;2022-07-26T12:02:47;8.55;;;0.88;;
52208;SDS011;38507;53.132;6.394;2022-07-26T12:05:16;7.53;;;1.17;;
52208;SDS011;38507;53.132;6.394;2022-07-26T12:07:54;10.85;;;1.42;;
52208;SDS011;38507;53.132;6.394;2022-07-26T12:10:24;9.00;;;1.35;;
52208;SDS011;38507;53.132;6.394;2022-07-26T12:15:43;6.53;;;1.10;;
52208;SDS011;38507;53.132;6.394;2022-07-26T12:18:20;6.50;;;1.20;;
52208;SDS011;38507;53.132;6.394;2022-07-26T12:20:59;5.20;;;1.10;;
52208;SDS011;38507;53.132;6.394;2022-07-26T12:23:38;7.03;;;1.20;;
52208;SDS011;38507;53.132;6.394;2022-07-26T12:26:25;7.60;;;1.10;;
52208;SDS011;38507;53.132;6.394;2022-07-26T12:28:52;7.25;;;0.90;;
52208;SDS011;38507;53.132;6.394;2022-07-26T12:33:51;6.07;;;0.93;;
52208;SDS011;38507;53.132;6.394;2022-07-26T12:36:21;4.78;;;0.80;;
52208;SDS011;38507;53.132;6.394;2022-07-26T12:38:47;8.35;;;1.13;;
52208;SDS011;38507;53.132;6.394;2022-07-26T12:41:31;4.90;;;0.98;;
52208;SDS011;38507;53.132;6.394;2022-07-26T12:44:02;7.25;;;0.93;;
52208;SDS011;38507;53.132;6.394;2022-07-26T12:46:34;7.93;;;1.08;;
52208;SDS011;38507;53.132;6.394;2022-07-26T12:49:00;8.98;;;1.10;;
52208;SDS011;38507;53.132;6.394;2022-07-26T12:51:26;6.05;;;1.02;;
52208;SDS011;38507;53.132;6.394;2022-07-26T12:53:52;7.80;;;0.90;;
52208;SDS011;38507;53.132;6.394;2022-07-26T12:56:17;6.00;;;1.02;;
52208;SDS011;38507;53.132;6.394;2022-07-26T12:58:43;8.70;;;1.17;;
52208;SDS011;38507;53.132;6.394;2022-07-26T13:01:10;6.47;;;1.00;;
52208;SDS011;38507;53.132;6.394;2022-07-26T13:03:35;7.38;;;1.23;;
52208;SDS011;38507;53.132;6.394;2022-07-26T13:06:01;6.47;;;0.80;;
52208;SDS011;38507;53.132;6.394;2022-07-26T13:08:27;6.78;;;1.00;;
52208;SDS011;38507;53.132;6.394;2022-07-26T13:10:53;10.10;;;1.13;;
52208;SDS011;38507;53.132;6.394;2022-07-26T13:13:19;17.15;;;1.15;;
52208;SDS011;38507;53.132;6.394;2022-07-26T13:15:45;9.63;;;1.10;;
52208;SDS011;38507;53.132;6.394;2022-07-26T13:18:11;9.68;;;1.30;;
52208;SDS011;38507;53.132;6.394;2022-07-26T13:20:37;5.25;;;1.00;;
52208;SDS011;38507;53.132;6.394;2022-07-26T13:23:03;6.20;;;1.30;;
52208;SDS011;38507;53.132;6.394;2022-07-26T13:25:30;5.40;;;1.00;;
52208;SDS011;38507;53.132;6.394;2022-07-26T13:27:55;6.97;;;0.85;;
52208;SDS011;38507;53.132;6.394;2022-07-26T13:30:21;8.73;;;1.85;;
52208;SDS011;38507;53.132;6.394;2022-07-26T13:32:47;11.65;;;1.30;;
52208;SDS011;38507;53.132;6.394;2022-07-26T13:35:13;5.60;;;0.80;;
52208;SDS011;38507;53.132;6.394;2022-07-26T13:37:38;5.28;;;1.35;;
52208;SDS011;38507;53.132;6.394;2022-07-26T13:40:05;9.13;;;1.33;;
52208;SDS011;38507;53.132;6.394;2022-07-26T13:42:31;7.28;;;1.02;;
52208;SDS011;38507;53.132;6.394;2022-07-26T13:44:57;5.00;;;0.80;;
52208;SDS011;38507;53.132;6.394;2022-07-26T13:47:22;4.72;;;0.90;;
52208;SDS011;38507;53.132;6.394;2022-07-26T13:49:48;4.43;;;0.70;;
52208;SDS011;38507;53.132;6.394;2022-07-26T13:52:13;4.32;;;0.93;;
52208;SDS011;38507;53.132;6.394;2022-07-26T13:54:39;4.40;;;0.68;;
52208;SDS011;38507;53.132;6.394;2022-07-26T13:57:05;5.43;;;0.80;;
52208;SDS011;38507;53.132;6.394;2022-07-26T13:59:32;3.45;;;0.60;;
52208;SDS011;38507;53.132;6.394;2022-07-26T14:01:58;4.28;;;0.98;;
52208;SDS011;38507;53.132;6.394;2022-07-26T14:04:23;4.53;;;0.80;;
52208;SDS011;38507;53.132;6.394;2022-07-26T14:06:50;4.25;;;1.13;;
52208;SDS011;38507;53.132;6.394;2022-07-26T14:09:16;3.78;;;0.50;;
52208;SDS011;38507;53.132;6.394;2022-07-26T14:11:43;3.97;;;0.75;;
52208;SDS011;38507;53.132;6.394;2022-07-26T14:14:08;3.03;;;0.70;;
52208;SDS011;38507;53.132;6.394;2022-07-26T14:16:35;7.90;;;0.65;;
52208;SDS011;38507;53.132;6.394;2022-07-26T14:19:03;5.88;;;0.90;;
52208;SDS011;38507;53.132;6.394;2022-07-26T14:21:30;5.95;;;1.05;;
52208;SDS011;38507;53.132;6.394;2022-07-26T14:23:57;6.18;;;0.90;;
52208;SDS011;38507;53.132;6.394;2022-07-26T14:26:24;4.82;;;0.93;;
52208;SDS011;38507;53.132;6.394;2022-07-26T14:28:51;7.28;;;0.95;;
52208;SDS011;38507;53.132;6.394;2022-07-26T14:31:16;7.15;;;1.92;;
52208;SDS011;38507;53.132;6.394;2022-07-26T14:33:43;4.40;;;0.80;;
52208;SDS011;38507;53.132;6.394;2022-07-26T14:36:09;5.22;;;0.85;;
52208;SDS011;38507;53.132;6.394;2022-07-26T14:38:37;6.05;;;0.77;;
52208;SDS011;38507;53.132;6.394;2022-07-26T14:41:06;2.95;;;0.70;;
52208;SDS011;38507;53.132;6.394;2022-07-26T14:43:32;3.95;;;0.68;;
52208;SDS011;38507;53.132;6.394;2022-07-26T14:45:57;11.57;;;1.17;;
52208;SDS011;38507;53.132;6.394;2022-07-26T14:48:23;4.53;;;0.65;;
52208;SDS011;38507;53.132;6.394;2022-07-26T14:50:49;10.27;;;1.00;;
52208;SDS011;38507;53.132;6.394;2022-07-26T14:53:14;6.03;;;0.80;;
52208;SDS011;38507;53.132;6.394;2022-07-26T14:55:41;7.38;;;0.80;;
52208;SDS011;38507;53.132;6.394;2022-07-26T14:58:08;2.67;;;0.60;;
52208;SDS011;38507;53.132;6.394;2022-07-26T15:00:33;4.60;;;0.85;;
52208;SDS011;38507;53.132;6.394;2022-07-26T15:02:59;5.07;;;0.90;;
52208;SDS011;38507;53.132;6.394;2022-07-26T15:05:25;5.35;;;0.82;;
52208;SDS011;38507;53.132;6.394;2022-07-26T15:07:52;3.17;;;0.57;;
52208;SDS011;38507;53.132;6.394;2022-07-26T15:10:18;4.75;;;0.60;;
52208;SDS011;38507;53.132;6.394;2022-07-26T15:12:53;5.05;;;0.82;;
52208;SDS011;38507;53.132;6.394;2022-07-26T15:15:20;6.75;;;0.88;;
52208;SDS011;38507;53.132;6.394;2022-07-26T15:17:46;8.80;;;0.95;;
52208;SDS011;38507;53.132;6.394;2022-07-26T15:20:12;5.38;;;0.80;;
52208;SDS011;38507;53.132;6.394;2022-07-26T15:22:38;3.25;;;0.70;;
52208;SDS011;38507;53.132;6.394;2022-07-26T15:25:04;3.40;;;0.57;;
52208;SDS011;38507;53.132;6.394;2022-07-26T15:27:30;4.15;;;0.65;;